sensor_id;sensor_type;location;lat;lon;timestamp;P1;durP1;ratioP1;P2;durP2;ratioP2
37305;SDS011;23193;42.656;21.170;2022-10-16T00:00:39;63.47;;;30.58;;
37305;SDS011;23193;42.656;21.170;2022-10-16T00:03:06;56.95;;;30.77;;
37305;SDS011;23193;42.656;21.170;2022-10-16T00:05:33;59.00;;;30.08;;
37305;SDS011;23193;42.656;21.170;2022-10-16T00:07:59;47.95;;;27.35;;
37305;SDS011;23193;42.656;21.170;2022-10-16T00:10:25;64.55;;;27.77;;
37305;SDS011;23193;42.656;21.170;2022-10-16T00:12:51;67.85;;;28.17;;
37305;SDS011;23193;42.656;21.170;2022-10-16T00:15:17;46.90;;;27.90;;
37305;SDS011;23193;42.656;21.170;2022-10-16T00:17:43;48.47;;;27.20;;
37305;SDS011;23193;42.656;21.170;2022-10-16T00:20:09;54.90;;;27.85;;
37305;SDS011;23193;42.656;21.170;2022-10-16T00:22:35;79.22;;;30.13;;
37305;SDS011;23193;42.656;21.170;2022-10-16T00:25:01;55.15;;;26.77;;
37305;SDS011;23193;42.656;21.170;2022-10-16T00:27:27;58.58;;;28.08;;
37305;SDS011;23193;42.656;21.170;2022-10-16T00:29:53;66.75;;;29.20;;
37305;SDS011;23193;42.656;21.170;2022-10-16T00:32:19;52.28;;;28.55;;
37305;SDS011;23193;42.656;21.170;2022-10-16T00:34:45;46.60;;;26.50;;
37305;SDS011;23193;42.656;21.170;2022-10-16T00:37:12;51.95;;;27.50;;
37305;SDS011;23193;42.656;21.170;2022-10-16T00:39:38;51.58;;;25.98;;
37305;SDS011;23193;42.656;21.170;2022-10-16T00:42:05;57.20;;;26.95;;
37305;SDS011;23193;42.656;21.170;2022-10-16T00:44:42;54.50;;;28.05;;
37305;SDS011;23193;42.656;21.170;2022-10-16T00:47:13;56.40;;;28.13;;
37305;SDS011;23193;42.656;21.170;2022-10-16T00:49:41;54.47;;;29.27;;
37305;SDS011;23193;42.656;21.170;2022-10-16T00:52:07;65.00;;;29.42;;
37305;SDS011;23193;42.656;21.170;2022-10-16T00:54:33;55.53;;;30.83;;
37305;SDS011;23193;42.656;21.170;2022-10-16T00:57:00;57.00;;;28.55;;
37305;SDS011;23193;42.656;21.170;2022-10-16T00:59:28;61.75;;;27.65;;
37305;SDS011;23193;42.656;21.170;2022-10-16T01:01:54;50.25;;;27.17;;
37305;SDS011;23193;42.656;21.170;2022-10-16T01:04:21;63.67;;;30.48;;
37305;SDS011;23193;42.656;21.170;2022-10-16T01:17:46;60.42;;;28.58;;
37305;SDS011;23193;42.656;21.170;2022-10-16T01:25:18;41.80;;;20.52;;
37305;SDS011;23193;42.656;21.170;2022-10-16T01:27:46;62.30;;;24.38;;
37305;SDS011;23193;42.656;21.170;2022-10-16T01:30:15;52.35;;;23.60;;
37305;SDS011;23193;42.656;21.170;2022-10-16T01:32:43;57.20;;;22.83;;
37305;SDS011;23193;42.656;21.170;2022-10-16T01:35:19;53.08;;;23.05;;
37305;SDS011;23193;42.656;21.170;2022-10-16T01:37:52;48.05;;;22.98;;
37305;SDS011;23193;42.656;21.170;2022-10-16T01:42:50;51.13;;;24.95;;
37305;SDS011;23193;42.656;21.170;2022-10-16T01:45:18;65.28;;;33.97;;
37305;SDS011;23193;42.656;21.170;2022-10-16T01:47:45;54.80;;;25.10;;
37305;SDS011;23193;42.656;21.170;2022-10-16T01:50:12;39.47;;;21.77;;
37305;SDS011;23193;42.656;21.170;2022-10-16T01:52:41;38.55;;;20.70;;
37305;SDS011;23193;42.656;21.170;2022-10-16T01:55:09;39.42;;;20.17;;
37305;SDS011;23193;42.656;21.170;2022-10-16T01:57:36;38.95;;;19.90;;
37305;SDS011;23193;42.656;21.170;2022-10-16T02:00:05;36.90;;;18.13;;
37305;SDS011;23193;42.656;21.170;2022-10-16T02:02:32;35.42;;;18.65;;
37305;SDS011;23193;42.656;21.170;2022-10-16T02:05:09;35.88;;;18.90;;
37305;SDS011;23193;42.656;21.170;2022-10-16T02:07:36;39.63;;;18.73;;
37305;SDS011;23193;42.656;21.170;2022-10-16T02:10:02;41.78;;;18.27;;
37305;SDS011;23193;42.656;21.170;2022-10-16T02:12:30;37.35;;;19.13;;
37305;SDS011;23193;42.656;21.170;2022-10-16T02:14:57;42.92;;;19.55;;
37305;SDS011;23193;42.656;21.170;2022-10-16T02:17:23;39.28;;;20.13;;
37305;SDS011;23193;42.656;21.170;2022-10-16T02:19:50;41.95;;;19.88;;
37305;SDS011;23193;42.656;21.170;2022-10-16T02:22:20;41.33;;;19.85;;
37305;SDS011;23193;42.656;21.170;2022-10-16T02:29:42;43.53;;;21.23;;
37305;SDS011;23193;42.656;21.170;2022-10-16T02:32:13;38.65;;;22.15;;
37305;SDS011;23193;42.656;21.170;2022-10-16T02:34:40;43.90;;;20.83;;
37305;SDS011;23193;42.656;21.170;2022-10-16T02:37:06;42.28;;;19.77;;
37305;SDS011;23193;42.656;21.170;2022-10-16T02:39:33;37.13;;;20.08;;
37305;SDS011;23193;42.656;21.170;2022-10-16T02:42:00;39.97;;;17.85;;
37305;SDS011;23193;42.656;21.170;2022-10-16T02:44:26;39.35;;;17.70;;
37305;SDS011;23193;42.656;21.170;2022-10-16T02:46:52;37.55;;;17.90;;
37305;SDS011;23193;42.656;21.170;2022-10-16T02:49:18;34.67;;;16.98;;
37305;SDS011;23193;42.656;21.170;2022-10-16T02:51:44;31.75;;;17.17;;
37305;SDS011;23193;42.656;21.170;2022-10-16T02:54:10;50.80;;;19.35;;
37305;SDS011;23193;42.656;21.170;2022-10-16T02:56:36;50.08;;;22.48;;
37305;SDS011;23193;42.656;21.170;2022-10-16T02:59:02;41.35;;;23.02;;
37305;SDS011;23193;42.656;21.170;2022-10-16T03:01:28;45.58;;;22.02;;
37305;SDS011;23193;42.656;21.170;2022-10-16T03:03:54;46.88;;;24.00;;
37305;SDS011;23193;42.656;21.170;2022-10-16T03:06:20;49.85;;;24.00;;
37305;SDS011;23193;42.656;21.170;2022-10-16T03:08:47;42.50;;;22.95;;
37305;SDS011;23193;42.656;21.170;2022-10-16T03:11:13;42.95;;;21.65;;
37305;SDS011;23193;42.656;21.170;2022-10-16T03:13:39;50.17;;;21.27;;
37305;SDS011;23193;42.656;21.170;2022-10-16T03:16:05;47.28;;;20.30;;
37305;SDS011;23193;42.656;21.170;2022-10-16T03:18:31;43.35;;;21.60;;
37305;SDS011;23193;42.656;21.170;2022-10-16T03:20:57;37.08;;;20.13;;
37305;SDS011;23193;42.656;21.170;2022-10-16T03:23:23;42.40;;;20.85;;
37305;SDS011;23193;42.656;21.170;2022-10-16T03:25:49;40.33;;;21.75;;
37305;SDS011;23193;42.656;21.170;2022-10-16T03:28:15;47.22;;;22.35;;
37305;SDS011;23193;42.656;21.170;2022-10-16T03:30:41;44.53;;;23.48;;
37305;SDS011;23193;42.656;21.170;2022-10-16T03:33:08;37.35;;;21.92;;
37305;SDS011;23193;42.656;21.170;2022-10-16T03:35:34;43.08;;;22.63;;
37305;SDS011;23193;42.656;21.170;2022-10-16T03:38:00;39.05;;;21.67;;
37305;SDS011;23193;42.656;21.170;2022-10-16T03:40:26;45.40;;;24.00;;
37305;SDS011;23193;42.656;21.170;2022-10-16T03:42:52;49.85;;;23.25;;
37305;SDS011;23193;42.656;21.170;2022-10-16T03:45:22;43.05;;;23.23;;
37305;SDS011;23193;42.656;21.170;2022-10-16T03:47:48;45.30;;;23.40;;
37305;SDS011;23193;42.656;21.170;2022-10-16T03:50:14;43.25;;;22.58;;
37305;SDS011;23193;42.656;21.170;2022-10-16T03:52:40;46.22;;;20.77;;
37305;SDS011;23193;42.656;21.170;2022-10-16T03:55:06;39.45;;;20.23;;
37305;SDS011;23193;42.656;21.170;2022-10-16T03:57:32;35.85;;;21.27;;
37305;SDS011;23193;42.656;21.170;2022-10-16T03:59:58;41.13;;;21.92;;
37305;SDS011;23193;42.656;21.170;2022-10-16T04:02:24;37.30;;;21.50;;
37305;SDS011;23193;42.656;21.170;2022-10-16T04:04:50;42.05;;;22.35;;
37305;SDS011;23193;42.656;21.170;2022-10-16T04:07:17;49.45;;;22.55;;
37305;SDS011;23193;42.656;21.170;2022-10-16T04:09:43;46.95;;;21.67;;
37305;SDS011;23193;42.656;21.170;2022-10-16T04:12:09;39.58;;;20.45;;
37305;SDS011;23193;42.656;21.170;2022-10-16T04:14:35;39.45;;;21.25;;
37305;SDS011;23193;42.656;21.170;2022-10-16T04:17:01;34.40;;;20.35;;
37305;SDS011;23193;42.656;21.170;2022-10-16T04:19:27;40.63;;;20.25;;
37305;SDS011;23193;42.656;21.170;2022-10-16T04:21:53;39.50;;;20.75;;
37305;SDS011;23193;42.656;21.170;2022-10-16T04:24:19;35.90;;;19.63;;
37305;SDS011;23193;42.656;21.170;2022-10-16T04:26:45;42.55;;;21.02;;
37305;SDS011;23193;42.656;21.170;2022-10-16T04:29:11;45.05;;;20.05;;
37305;SDS011;23193;42.656;21.170;2022-10-16T04:31:37;40.72;;;19.77;;
37305;SDS011;23193;42.656;21.170;2022-10-16T04:34:03;43.90;;;20.30;;
37305;SDS011;23193;42.656;21.170;2022-10-16T04:36:29;41.58;;;21.10;;
37305;SDS011;23193;42.656;21.170;2022-10-16T04:38:55;35.95;;;20.38;;
37305;SDS011;23193;42.656;21.170;2022-10-16T04:41:21;39.58;;;19.77;;
37305;SDS011;23193;42.656;21.170;2022-10-16T04:43:47;36.72;;;20.13;;
37305;SDS011;23193;42.656;21.170;2022-10-16T04:46:13;39.63;;;19.88;;
37305;SDS011;23193;42.656;21.170;2022-10-16T04:48:39;35.75;;;22.17;;
37305;SDS011;23193;42.656;21.170;2022-10-16T04:51:05;42.20;;;20.17;;
37305;SDS011;23193;42.656;21.170;2022-10-16T04:53:31;48.67;;;19.48;;
37305;SDS011;23193;42.656;21.170;2022-10-16T04:55:58;43.28;;;20.52;;
37305;SDS011;23193;42.656;21.170;2022-10-16T04:58:25;37.67;;;18.95;;
37305;SDS011;23193;42.656;21.170;2022-10-16T05:00:51;46.50;;;20.95;;
37305;SDS011;23193;42.656;21.170;2022-10-16T05:03:17;36.47;;;20.13;;
37305;SDS011;23193;42.656;21.170;2022-10-16T05:05:43;40.53;;;19.65;;
37305;SDS011;23193;42.656;21.170;2022-10-16T05:08:10;36.70;;;20.58;;
37305;SDS011;23193;42.656;21.170;2022-10-16T05:10:36;43.85;;;21.27;;
37305;SDS011;23193;42.656;21.170;2022-10-16T05:13:02;38.50;;;19.63;;
37305;SDS011;23193;42.656;21.170;2022-10-16T05:15:28;30.90;;;17.10;;
37305;SDS011;23193;42.656;21.170;2022-10-16T05:17:54;38.20;;;18.08;;
37305;SDS011;23193;42.656;21.170;2022-10-16T05:20:21;35.45;;;19.05;;
37305;SDS011;23193;42.656;21.170;2022-10-16T05:22:47;37.25;;;17.65;;
37305;SDS011;23193;42.656;21.170;2022-10-16T05:25:13;34.03;;;17.38;;
37305;SDS011;23193;42.656;21.170;2022-10-16T05:27:39;40.42;;;18.10;;
37305;SDS011;23193;42.656;21.170;2022-10-16T05:30:05;39.38;;;20.38;;
37305;SDS011;23193;42.656;21.170;2022-10-16T05:32:32;49.17;;;21.15;;
37305;SDS011;23193;42.656;21.170;2022-10-16T05:34:58;36.72;;;19.42;;
37305;SDS011;23193;42.656;21.170;2022-10-16T05:37:25;35.33;;;18.30;;
37305;SDS011;23193;42.656;21.170;2022-10-16T05:39:51;37.50;;;18.60;;
37305;SDS011;23193;42.656;21.170;2022-10-16T05:42:17;42.17;;;18.05;;
37305;SDS011;23193;42.656;21.170;2022-10-16T05:44:43;36.25;;;18.98;;
37305;SDS011;23193;42.656;21.170;2022-10-16T05:47:09;38.10;;;16.77;;
37305;SDS011;23193;42.656;21.170;2022-10-16T05:49:36;41.63;;;21.75;;
37305;SDS011;23193;42.656;21.170;2022-10-16T05:52:02;36.00;;;18.42;;
37305;SDS011;23193;42.656;21.170;2022-10-16T05:54:28;30.15;;;18.30;;
37305;SDS011;23193;42.656;21.170;2022-10-16T05:56:54;49.20;;;18.52;;
37305;SDS011;23193;42.656;21.170;2022-10-16T05:59:20;43.65;;;17.45;;
37305;SDS011;23193;42.656;21.170;2022-10-16T06:01:46;31.55;;;16.77;;
37305;SDS011;23193;42.656;21.170;2022-10-16T06:04:12;34.53;;;16.10;;
37305;SDS011;23193;42.656;21.170;2022-10-16T06:06:38;34.88;;;17.77;;
37305;SDS011;23193;42.656;21.170;2022-10-16T06:09:04;26.88;;;16.35;;
37305;SDS011;23193;42.656;21.170;2022-10-16T06:11:31;31.10;;;17.08;;
37305;SDS011;23193;42.656;21.170;2022-10-16T06:13:58;32.15;;;17.58;;
37305;SDS011;23193;42.656;21.170;2022-10-16T06:16:26;35.92;;;17.45;;
37305;SDS011;23193;42.656;21.170;2022-10-16T06:18:53;32.83;;;16.08;;
37305;SDS011;23193;42.656;21.170;2022-10-16T06:21:21;33.70;;;15.70;;
37305;SDS011;23193;42.656;21.170;2022-10-16T06:23:49;28.15;;;14.35;;
37305;SDS011;23193;42.656;21.170;2022-10-16T06:26:17;35.85;;;17.85;;
37305;SDS011;23193;42.656;21.170;2022-10-16T06:28:43;35.75;;;20.00;;
37305;SDS011;23193;42.656;21.170;2022-10-16T06:31:09;35.38;;;19.38;;
37305;SDS011;23193;42.656;21.170;2022-10-16T06:33:37;38.88;;;18.05;;
37305;SDS011;23193;42.656;21.170;2022-10-16T06:36:04;35.15;;;16.35;;
37305;SDS011;23193;42.656;21.170;2022-10-16T06:38:30;40.90;;;18.23;;
37305;SDS011;23193;42.656;21.170;2022-10-16T06:40:56;35.78;;;16.75;;
37305;SDS011;23193;42.656;21.170;2022-10-16T06:43:22;28.67;;;17.58;;
37305;SDS011;23193;42.656;21.170;2022-10-16T06:45:55;44.17;;;18.70;;
37305;SDS011;23193;42.656;21.170;2022-10-16T06:48:22;37.60;;;17.10;;
37305;SDS011;23193;42.656;21.170;2022-10-16T06:50:55;37.30;;;16.55;;
37305;SDS011;23193;42.656;21.170;2022-10-16T06:53:21;40.10;;;18.17;;
37305;SDS011;23193;42.656;21.170;2022-10-16T06:55:47;46.50;;;18.20;;
37305;SDS011;23193;42.656;21.170;2022-10-16T06:58:13;36.22;;;17.70;;
37305;SDS011;23193;42.656;21.170;2022-10-16T07:00:39;44.05;;;20.05;;
37305;SDS011;23193;42.656;21.170;2022-10-16T07:03:05;39.75;;;19.50;;
37305;SDS011;23193;42.656;21.170;2022-10-16T07:05:31;39.22;;;23.08;;
37305;SDS011;23193;42.656;21.170;2022-10-16T07:07:57;33.67;;;21.00;;
37305;SDS011;23193;42.656;21.170;2022-10-16T07:10:23;42.92;;;21.33;;
37305;SDS011;23193;42.656;21.170;2022-10-16T07:12:49;41.38;;;21.30;;
37305;SDS011;23193;42.656;21.170;2022-10-16T07:15:15;55.55;;;22.83;;
37305;SDS011;23193;42.656;21.170;2022-10-16T07:17:41;41.67;;;23.67;;
37305;SDS011;23193;42.656;21.170;2022-10-16T07:20:08;44.50;;;22.63;;
37305;SDS011;23193;42.656;21.170;2022-10-16T07:22:34;36.92;;;21.33;;
37305;SDS011;23193;42.656;21.170;2022-10-16T07:25:00;44.38;;;21.08;;
37305;SDS011;23193;42.656;21.170;2022-10-16T07:27:26;34.53;;;19.80;;
37305;SDS011;23193;42.656;21.170;2022-10-16T07:29:52;36.20;;;19.63;;
37305;SDS011;23193;42.656;21.170;2022-10-16T07:32:18;45.50;;;21.10;;
37305;SDS011;23193;42.656;21.170;2022-10-16T07:34:44;35.67;;;19.55;;
37305;SDS011;23193;42.656;21.170;2022-10-16T07:37:10;47.17;;;20.85;;
37305;SDS011;23193;42.656;21.170;2022-10-16T07:39:37;45.55;;;20.48;;
37305;SDS011;23193;42.656;21.170;2022-10-16T07:42:03;32.33;;;18.70;;
37305;SDS011;23193;42.656;21.170;2022-10-16T07:44:29;42.42;;;21.48;;
37305;SDS011;23193;42.656;21.170;2022-10-16T07:46:55;38.53;;;20.10;;
37305;SDS011;23193;42.656;21.170;2022-10-16T07:49:21;37.20;;;19.50;;
37305;SDS011;23193;42.656;21.170;2022-10-16T07:51:47;41.45;;;20.67;;
37305;SDS011;23193;42.656;21.170;2022-10-16T07:54:13;37.30;;;20.92;;
37305;SDS011;23193;42.656;21.170;2022-10-16T07:56:39;39.13;;;20.55;;
37305;SDS011;23193;42.656;21.170;2022-10-16T07:59:05;34.15;;;19.85;;
37305;SDS011;23193;42.656;21.170;2022-10-16T08:01:31;47.75;;;21.38;;
37305;SDS011;23193;42.656;21.170;2022-10-16T08:03:57;38.67;;;22.33;;
37305;SDS011;23193;42.656;21.170;2022-10-16T08:06:23;37.60;;;21.35;;
37305;SDS011;23193;42.656;21.170;2022-10-16T08:08:49;42.38;;;24.33;;
37305;SDS011;23193;42.656;21.170;2022-10-16T08:11:15;40.63;;;21.55;;
37305;SDS011;23193;42.656;21.170;2022-10-16T08:13:41;46.95;;;22.48;;
37305;SDS011;23193;42.656;21.170;2022-10-16T08:16:08;43.92;;;22.90;;
37305;SDS011;23193;42.656;21.170;2022-10-16T08:18:37;49.03;;;23.50;;
37305;SDS011;23193;42.656;21.170;2022-10-16T08:21:04;41.92;;;24.70;;
37305;SDS011;23193;42.656;21.170;2022-10-16T08:23:30;48.10;;;25.15;;
37305;SDS011;23193;42.656;21.170;2022-10-16T08:26:01;41.70;;;24.35;;
37305;SDS011;23193;42.656;21.170;2022-10-16T08:28:27;49.95;;;24.42;;
37305;SDS011;23193;42.656;21.170;2022-10-16T08:30:53;38.95;;;24.13;;
37305;SDS011;23193;42.656;21.170;2022-10-16T08:33:21;44.70;;;25.40;;
37305;SDS011;23193;42.656;21.170;2022-10-16T08:35:53;51.13;;;24.90;;
37305;SDS011;23193;42.656;21.170;2022-10-16T08:38:20;52.58;;;25.40;;
37305;SDS011;23193;42.656;21.170;2022-10-16T08:40:46;41.47;;;24.38;;
37305;SDS011;23193;42.656;21.170;2022-10-16T08:43:56;46.10;;;24.27;;
37305;SDS011;23193;42.656;21.170;2022-10-16T08:48:35;49.80;;;24.15;;
37305;SDS011;23193;42.656;21.170;2022-10-16T08:51:03;45.20;;;23.98;;
37305;SDS011;23193;42.656;21.170;2022-10-16T08:53:48;52.60;;;25.48;;
37305;SDS011;23193;42.656;21.170;2022-10-16T08:56:15;42.63;;;24.92;;
37305;SDS011;23193;42.656;21.170;2022-10-16T08:58:41;39.75;;;23.90;;
37305;SDS011;23193;42.656;21.170;2022-10-16T09:01:14;47.35;;;23.23;;
37305;SDS011;23193;42.656;21.170;2022-10-16T09:06:37;42.70;;;21.90;;
37305;SDS011;23193;42.656;21.170;2022-10-16T09:09:18;35.70;;;22.30;;
37305;SDS011;23193;42.656;21.170;2022-10-16T09:17:03;46.45;;;21.80;;
37305;SDS011;23193;42.656;21.170;2022-10-16T09:19:31;39.35;;;22.15;;
37305;SDS011;23193;42.656;21.170;2022-10-16T09:22:02;41.40;;;21.58;;
37305;SDS011;23193;42.656;21.170;2022-10-16T09:24:35;36.10;;;21.35;;
37305;SDS011;23193;42.656;21.170;2022-10-16T09:27:02;34.42;;;19.15;;
37305;SDS011;23193;42.656;21.170;2022-10-16T09:29:28;37.72;;;20.08;;
37305;SDS011;23193;42.656;21.170;2022-10-16T09:31:55;41.35;;;19.05;;
37305;SDS011;23193;42.656;21.170;2022-10-16T09:34:32;36.33;;;19.35;;
37305;SDS011;23193;42.656;21.170;2022-10-16T09:36:59;41.45;;;19.55;;
37305;SDS011;23193;42.656;21.170;2022-10-16T09:39:26;45.08;;;20.40;;
37305;SDS011;23193;42.656;21.170;2022-10-16T09:41:52;37.33;;;19.75;;
37305;SDS011;23193;42.656;21.170;2022-10-16T09:44:19;32.42;;;20.48;;
37305;SDS011;23193;42.656;21.170;2022-10-16T09:46:47;31.73;;;19.05;;
37305;SDS011;23193;42.656;21.170;2022-10-16T09:49:20;42.25;;;20.65;;
37305;SDS011;23193;42.656;21.170;2022-10-16T09:51:47;35.70;;;20.15;;
37305;SDS011;23193;42.656;21.170;2022-10-16T09:54:18;50.30;;;21.35;;
37305;SDS011;23193;42.656;21.170;2022-10-16T09:56:44;40.17;;;21.73;;
37305;SDS011;23193;42.656;21.170;2022-10-16T09:59:15;42.92;;;21.95;;
37305;SDS011;23193;42.656;21.170;2022-10-16T10:01:43;38.28;;;21.80;;
37305;SDS011;23193;42.656;21.170;2022-10-16T10:04:10;41.50;;;21.30;;
37305;SDS011;23193;42.656;21.170;2022-10-16T10:06:40;41.58;;;23.85;;
37305;SDS011;23193;42.656;21.170;2022-10-16T10:09:13;45.22;;;22.98;;
37305;SDS011;23193;42.656;21.170;2022-10-16T10:11:42;37.42;;;23.73;;
37305;SDS011;23193;42.656;21.170;2022-10-16T10:14:13;46.55;;;24.02;;
37305;SDS011;23193;42.656;21.170;2022-10-16T10:16:41;47.50;;;24.10;;
37305;SDS011;23193;42.656;21.170;2022-10-16T10:19:17;42.03;;;23.73;;
37305;SDS011;23193;42.656;21.170;2022-10-16T10:21:43;51.85;;;26.73;;
37305;SDS011;23193;42.656;21.170;2022-10-16T10:24:13;39.92;;;25.38;;
37305;SDS011;23193;42.656;21.170;2022-10-16T10:26:51;49.00;;;26.30;;
37305;SDS011;23193;42.656;21.170;2022-10-16T10:29:25;42.53;;;25.90;;
37305;SDS011;23193;42.656;21.170;2022-10-16T10:39:51;44.28;;;25.48;;
37305;SDS011;23193;42.656;21.170;2022-10-16T10:47:48;38.42;;;23.80;;
37305;SDS011;23193;42.656;21.170;2022-10-16T10:53:09;38.97;;;22.38;;
37305;SDS011;23193;42.656;21.170;2022-10-16T10:55:54;37.30;;;21.30;;
37305;SDS011;23193;42.656;21.170;2022-10-16T11:05:58;38.53;;;24.70;;
37305;SDS011;23193;42.656;21.170;2022-10-16T11:08:30;31.05;;;21.17;;
37305;SDS011;23193;42.656;21.170;2022-10-16T11:11:01;40.28;;;22.75;;
37305;SDS011;23193;42.656;21.170;2022-10-16T11:13:44;36.10;;;22.30;;
37305;SDS011;23193;42.656;21.170;2022-10-16T11:21:06;33.75;;;19.50;;
37305;SDS011;23193;42.656;21.170;2022-10-16T11:23:35;31.70;;;17.80;;
37305;SDS011;23193;42.656;21.170;2022-10-16T11:26:04;34.20;;;17.80;;
37305;SDS011;23193;42.656;21.170;2022-10-16T11:28:33;34.65;;;15.82;;
37305;SDS011;23193;42.656;21.170;2022-10-16T11:36:27;26.17;;;15.23;;
37305;SDS011;23193;42.656;21.170;2022-10-16T11:39:00;28.25;;;15.18;;
37305;SDS011;23193;42.656;21.170;2022-10-16T11:41:35;25.73;;;12.65;;
37305;SDS011;23193;42.656;21.170;2022-10-16T11:44:09;25.67;;;12.68;;
37305;SDS011;23193;42.656;21.170;2022-10-16T11:46:40;26.17;;;13.20;;
37305;SDS011;23193;42.656;21.170;2022-10-16T11:49:11;23.13;;;11.77;;
37305;SDS011;23193;42.656;21.170;2022-10-16T11:51:40;20.08;;;11.07;;
37305;SDS011;23193;42.656;21.170;2022-10-16T11:56:53;28.60;;;12.65;;
37305;SDS011;23193;42.656;21.170;2022-10-16T11:59:23;22.02;;;11.43;;
37305;SDS011;23193;42.656;21.170;2022-10-16T12:04:31;23.63;;;11.52;;
37305;SDS011;23193;42.656;21.170;2022-10-16T12:09:29;16.52;;;11.38;;
37305;SDS011;23193;42.656;21.170;2022-10-16T12:11:55;19.10;;;11.25;;
37305;SDS011;23193;42.656;21.170;2022-10-16T12:14:43;21.42;;;11.35;;
37305;SDS011;23193;42.656;21.170;2022-10-16T12:19:56;24.10;;;11.85;;
37305;SDS011;23193;42.656;21.170;2022-10-16T12:22:22;23.67;;;11.70;;
37305;SDS011;23193;42.656;21.170;2022-10-16T12:24:50;27.08;;;13.55;;
37305;SDS011;23193;42.656;21.170;2022-10-16T12:27:35;26.42;;;13.00;;
37305;SDS011;23193;42.656;21.170;2022-10-16T12:30:03;20.38;;;12.50;;
37305;SDS011;23193;42.656;21.170;2022-10-16T12:32:34;23.20;;;11.70;;
37305;SDS011;23193;42.656;21.170;2022-10-16T12:35:01;23.55;;;11.57;;
37305;SDS011;23193;42.656;21.170;2022-10-16T12:37:32;24.17;;;13.40;;
37305;SDS011;23193;42.656;21.170;2022-10-16T12:39:58;29.52;;;13.73;;
37305;SDS011;23193;42.656;21.170;2022-10-16T12:44:55;22.05;;;12.02;;
37305;SDS011;23193;42.656;21.170;2022-10-16T12:47:22;29.80;;;15.05;;
37305;SDS011;23193;42.656;21.170;2022-10-16T12:49:50;23.63;;;12.38;;
37305;SDS011;23193;42.656;21.170;2022-10-16T12:52:26;27.58;;;12.48;;
37305;SDS011;23193;42.656;21.170;2022-10-16T12:54:55;21.30;;;11.57;;
37305;SDS011;23193;42.656;21.170;2022-10-16T13:09:53;22.50;;;12.00;;
37305;SDS011;23193;42.656;21.170;2022-10-16T13:15:01;23.98;;;12.32;;
37305;SDS011;23193;42.656;21.170;2022-10-16T13:30:18;33.33;;;13.25;;
37305;SDS011;23193;42.656;21.170;2022-10-16T13:32:48;32.33;;;13.95;;
37305;SDS011;23193;42.656;21.170;2022-10-16T13:35:22;31.58;;;12.48;;
37305;SDS011;23193;42.656;21.170;2022-10-16T13:37:49;27.73;;;12.40;;
37305;SDS011;23193;42.656;21.170;2022-10-16T13:40:20;22.52;;;11.73;;
37305;SDS011;23193;42.656;21.170;2022-10-16T13:42:46;30.70;;;14.55;;
37305;SDS011;23193;42.656;21.170;2022-10-16T13:45:22;22.17;;;14.18;;
37305;SDS011;23193;42.656;21.170;2022-10-16T13:47:50;27.88;;;12.80;;
37305;SDS011;23193;42.656;21.170;2022-10-16T13:50:17;30.58;;;12.45;;
37305;SDS011;23193;42.656;21.170;2022-10-16T13:52:43;34.45;;;13.82;;
37305;SDS011;23193;42.656;21.170;2022-10-16T13:55:13;41.38;;;17.15;;
37305;SDS011;23193;42.656;21.170;2022-10-16T13:57:39;31.60;;;15.40;;
37305;SDS011;23193;42.656;21.170;2022-10-16T14:00:28;26.08;;;13.13;;
37305;SDS011;23193;42.656;21.170;2022-10-16T14:03:11;23.83;;;11.13;;
37305;SDS011;23193;42.656;21.170;2022-10-16T14:08:34;24.25;;;11.65;;
37305;SDS011;23193;42.656;21.170;2022-10-16T14:11:00;28.85;;;13.23;;
37305;SDS011;23193;42.656;21.170;2022-10-16T14:13:31;29.05;;;13.65;;
37305;SDS011;23193;42.656;21.170;2022-10-16T14:18:25;45.45;;;13.77;;
37305;SDS011;23193;42.656;21.170;2022-10-16T14:20:52;24.10;;;12.00;;
37305;SDS011;23193;42.656;21.170;2022-10-16T14:23:39;21.77;;;10.55;;
37305;SDS011;23193;42.656;21.170;2022-10-16T14:28:38;25.42;;;10.70;;
37305;SDS011;23193;42.656;21.170;2022-10-16T14:31:25;27.42;;;11.88;;
37305;SDS011;23193;42.656;21.170;2022-10-16T14:33:51;26.25;;;10.93;;
37305;SDS011;23193;42.656;21.170;2022-10-16T14:36:17;24.15;;;9.50;;
37305;SDS011;23193;42.656;21.170;2022-10-16T14:39:04;24.38;;;10.82;;
37305;SDS011;23193;42.656;21.170;2022-10-16T14:41:31;39.13;;;10.73;;
37305;SDS011;23193;42.656;21.170;2022-10-16T14:44:02;31.83;;;11.02;;
37305;SDS011;23193;42.656;21.170;2022-10-16T14:46:33;37.40;;;12.43;;
37305;SDS011;23193;42.656;21.170;2022-10-16T14:49:02;35.13;;;12.57;;
37305;SDS011;23193;42.656;21.170;2022-10-16T14:51:29;31.70;;;11.65;;
37305;SDS011;23193;42.656;21.170;2022-10-16T14:53:55;22.33;;;10.55;;
37305;SDS011;23193;42.656;21.170;2022-10-16T14:56:22;26.00;;;10.23;;
37305;SDS011;23193;42.656;21.170;2022-10-16T14:58:52;23.70;;;10.88;;
37305;SDS011;23193;42.656;21.170;2022-10-16T15:01:19;25.50;;;10.68;;
37305;SDS011;23193;42.656;21.170;2022-10-16T15:03:45;23.55;;;8.60;;
37305;SDS011;23193;42.656;21.170;2022-10-16T15:06:12;21.50;;;10.02;;
37305;SDS011;23193;42.656;21.170;2022-10-16T15:08:38;24.38;;;10.55;;
37305;SDS011;23193;42.656;21.170;2022-10-16T15:11:04;35.30;;;14.00;;
37305;SDS011;23193;42.656;21.170;2022-10-16T15:13:30;118.55;;;42.20;;
37305;SDS011;23193;42.656;21.170;2022-10-16T15:15:56;138.70;;;43.40;;
37305;SDS011;23193;42.656;21.170;2022-10-16T15:18:23;59.78;;;23.58;;
37305;SDS011;23193;42.656;21.170;2022-10-16T15:20:49;55.22;;;20.23;;
37305;SDS011;23193;42.656;21.170;2022-10-16T15:23:19;27.25;;;13.23;;
37305;SDS011;23193;42.656;21.170;2022-10-16T15:25:49;25.30;;;10.85;;
37305;SDS011;23193;42.656;21.170;2022-10-16T15:28:17;26.80;;;11.68;;
37305;SDS011;23193;42.656;21.170;2022-10-16T15:30:43;29.83;;;11.02;;
37305;SDS011;23193;42.656;21.170;2022-10-16T15:33:16;34.33;;;13.85;;
37305;SDS011;23193;42.656;21.170;2022-10-16T15:35:46;28.83;;;14.93;;
37305;SDS011;23193;42.656;21.170;2022-10-16T15:38:13;40.80;;;16.25;;
37305;SDS011;23193;42.656;21.170;2022-10-16T15:40:39;32.15;;;16.55;;
37305;SDS011;23193;42.656;21.170;2022-10-16T15:43:06;34.08;;;15.75;;
37305;SDS011;23193;42.656;21.170;2022-10-16T15:45:33;36.88;;;14.70;;
37305;SDS011;23193;42.656;21.170;2022-10-16T15:47:59;39.55;;;14.43;;
37305;SDS011;23193;42.656;21.170;2022-10-16T15:50:25;26.77;;;11.77;;
37305;SDS011;23193;42.656;21.170;2022-10-16T15:52:52;19.60;;;8.52;;
37305;SDS011;23193;42.656;21.170;2022-10-16T15:55:18;17.67;;;7.85;;
37305;SDS011;23193;42.656;21.170;2022-10-16T15:57:44;29.75;;;8.60;;
37305;SDS011;23193;42.656;21.170;2022-10-16T16:00:11;15.60;;;7.13;;
37305;SDS011;23193;42.656;21.170;2022-10-16T16:02:38;23.38;;;8.60;;
37305;SDS011;23193;42.656;21.170;2022-10-16T16:05:05;26.70;;;15.75;;
37305;SDS011;23193;42.656;21.170;2022-10-16T16:07:33;18.75;;;7.05;;
37305;SDS011;23193;42.656;21.170;2022-10-16T16:09:59;10.85;;;5.63;;